createdAt,value
2018-01-15T00:00:57.086Z,10.77
2018-01-15T00:03:26.240Z,10.23
2018-01-15T00:05:54.977Z,12.87
2018-01-15T00:08:24.133Z,11.43
2018-01-15T00:10:52.550Z,11.93
2018-01-15T00:13:21.844Z,12.23
2018-01-15T00:15:50.992Z,8.93
2018-01-15T00:18:19.383Z,12.37
2018-01-15T00:20:47.807Z,11.50
2018-01-15T00:23:17.205Z,11.60
2018-01-15T00:25:46.362Z,13.33
2018-01-15T00:28:14.965Z,11.03
2018-01-15T00:30:43.355Z,11.47
2018-01-15T00:33:11.751Z,13.07
2018-01-15T00:35:41.148Z,14.77
2018-01-15T00:38:10.299Z,11.57
2018-01-15T00:40:38.751Z,11.93
2018-01-15T00:43:07.174Z,12.83
2018-01-15T00:45:35.576Z,12.17
2018-01-15T00:48:04.014Z,13.90
2018-01-15T00:50:32.431Z,15.77
2018-01-15T00:53:00.826Z,14.17
2018-01-15T00:55:29.992Z,15.03
2018-01-15T00:57:58.516Z,9.97
2018-01-15T01:00:27.363Z,10.47
2018-01-15T01:02:55.756Z,10.67
2018-01-15T01:05:24.270Z,9.50
2018-01-15T01:07:52.994Z,9.67
2018-01-15T01:10:21.377Z,11.03
2018-01-15T01:12:49.833Z,14.10
2018-01-15T01:15:18.260Z,10.30
2018-01-15T01:17:46.663Z,12.10
2018-01-15T01:20:15.933Z,13.20
2018-01-15T01:22:45.828Z,10.50
2018-01-15T01:25:15.064Z,12.23
2018-01-15T01:27:44.655Z,11.83
2018-01-15T01:30:13.050Z,14.70
2018-01-15T01:32:42.260Z,16.57
2018-01-15T01:35:11.528Z,13.13
2018-01-15T01:37:40.011Z,13.87
2018-01-15T01:40:08.487Z,13.80
2018-01-15T01:42:36.909Z,16.60
2018-01-15T01:45:05.374Z,13.77
2018-01-15T01:47:34.545Z,12.60
2018-01-15T01:50:03.987Z,10.50
2018-01-15T01:52:33.183Z,12.67
2018-01-15T01:55:02.337Z,8.27
2018-01-15T01:57:30.774Z,11.17
2018-01-15T01:59:59.155Z,10.40
2018-01-15T02:02:27.563Z,11.80
2018-01-15T02:04:55.982Z,10.57
2018-01-15T02:07:25.138Z,9.00
2018-01-15T02:09:53.930Z,10.90
2018-01-15T02:12:22.337Z,11.47
2018-01-15T02:14:51.518Z,10.20
2018-01-15T02:17:20.682Z,10.50
2018-01-15T02:19:49.197Z,13.90
2018-01-15T02:22:17.586Z,15.00
2018-01-15T02:24:46.026Z,16.23
2018-01-15T02:27:15.079Z,15.30
2018-01-15T02:29:43.462Z,14.90
2018-01-15T02:32:12.676Z,14.27
2018-01-15T02:34:41.142Z,15.33
2018-01-15T02:37:10.312Z,10.20
2018-01-15T02:39:38.733Z,12.50
2018-01-15T02:42:07.396Z,12.63
2018-01-15T02:44:36.545Z,12.17
2018-01-15T02:47:04.926Z,9.87
2018-01-15T02:49:33.586Z,11.50
2018-01-15T02:52:02.194Z,6.97
2018-01-15T02:54:30.573Z,9.47
2018-01-15T02:56:58.990Z,5.27
2018-01-15T02:59:27.372Z,2.80
2018-01-15T03:01:55.735Z,3.70
2018-01-15T03:04:24.272Z,6.97
2018-01-15T03:06:52.703Z,8.10
2018-01-15T03:09:21.091Z,5.90
2018-01-15T03:11:49.951Z,10.50
2018-01-15T03:14:18.342Z,5.20
2018-01-15T03:16:46.766Z,5.67
2018-01-15T03:19:15.480Z,7.63
2018-01-15T03:21:43.880Z,5.40
2018-01-15T03:24:12.262Z,7.10
2018-01-15T03:26:41.072Z,10.90
2018-01-15T03:29:09.835Z,11.70
2018-01-15T03:31:38.228Z,6.50
2018-01-15T03:34:06.813Z,6.03
2018-01-15T03:36:35.206Z,10.07
2018-01-15T03:39:03.692Z,10.00
2018-01-15T03:41:32.928Z,11.10
2018-01-15T03:44:01.313Z,9.80
2018-01-15T03:46:29.823Z,9.43
2018-01-15T03:48:58.336Z,10.67
2018-01-15T03:51:27.484Z,6.20
2018-01-15T03:53:56.159Z,7.20
2018-01-15T03:56:25.446Z,9.07
2018-01-15T03:58:53.821Z,8.30
2018-01-15T04:01:22.193Z,10.10
2018-01-15T04:03:50.634Z,7.00
2018-01-15T04:06:19.036Z,6.33
2018-01-15T04:08:48.179Z,9.03
2018-01-15T04:11:16.795Z,6.80
2018-01-15T04:13:45.577Z,5.80
2018-01-15T04:16:13.982Z,7.53
2018-01-15T04:18:43.523Z,9.70
2018-01-15T04:21:11.909Z,7.97
2018-01-15T04:23:40.335Z,8.13
2018-01-15T04:26:09.616Z,5.67
2018-01-15T04:28:38.030Z,8.90
2018-01-15T04:31:07.390Z,5.67
2018-01-15T04:33:35.907Z,7.23
2018-01-15T04:36:05.091Z,11.50
2018-01-15T04:38:33.474Z,7.03
2018-01-15T04:41:02.036Z,8.53
2018-01-15T04:43:30.451Z,7.20
2018-01-15T04:45:59.593Z,6.30
2018-01-15T04:48:28.197Z,8.37
2018-01-15T04:50:56.609Z,6.90
2018-01-15T04:53:26.694Z,10.13
2018-01-15T04:55:55.311Z,13.37
2018-01-15T04:58:24.443Z,9.20
2018-01-15T05:00:52.831Z,13.17
2018-01-15T05:03:21.398Z,10.67
2018-01-15T05:05:49.774Z,7.60
2018-01-15T05:08:18.172Z,7.20
2018-01-15T05:10:46.726Z,13.00
2018-01-15T05:13:15.892Z,10.93
2018-01-15T05:15:45.264Z,8.50
2018-01-15T05:18:13.978Z,8.70
2018-01-15T05:20:42.364Z,12.77
2018-01-15T05:23:10.738Z,13.77
2018-01-15T05:25:39.246Z,8.67
2018-01-15T05:28:08.374Z,12.37
2018-01-15T05:30:36.777Z,11.27
2018-01-15T05:33:07.204Z,13.37
2018-01-15T05:35:35.589Z,12.97
2018-01-15T05:38:03.983Z,10.83
2018-01-15T05:40:32.443Z,10.63
2018-01-15T05:43:00.844Z,9.50
2018-01-15T05:45:29.236Z,14.17
2018-01-15T05:47:58.730Z,12.17
2018-01-15T05:50:27.115Z,7.63
2018-01-15T05:52:55.497Z,12.67
2018-01-15T05:55:24.867Z,5.90
2018-01-15T05:57:53.295Z,8.87
2018-01-15T06:00:22.473Z,12.50
2018-01-15T06:02:51.864Z,7.13
2018-01-15T06:05:20.245Z,5.27
2018-01-15T06:07:48.623Z,11.03
2018-01-15T06:10:17.523Z,13.87
2018-01-15T06:12:46.675Z,11.77
2018-01-15T06:15:15.063Z,10.17
2018-01-15T06:17:44.115Z,10.20
2018-01-15T06:20:12.530Z,13.33
2018-01-15T06:22:40.945Z,9.73
2018-01-15T06:25:09.365Z,12.30
2018-01-15T06:27:37.749Z,12.83
2018-01-15T06:30:06.188Z,13.03
2018-01-15T06:32:35.667Z,7.60
2018-01-15T06:35:04.602Z,11.43
2018-01-15T06:37:33.742Z,9.43
2018-01-15T06:40:02.271Z,14.40
2018-01-15T06:42:31.432Z,13.57
2018-01-15T06:44:59.870Z,11.60
2018-01-15T06:47:28.313Z,10.80
2018-01-15T06:49:56.692Z,10.43
2018-01-15T06:52:25.142Z,14.97
2018-01-15T06:54:53.750Z,7.00
2018-01-15T06:57:22.141Z,12.50
2018-01-15T06:59:50.785Z,10.33
2018-01-15T07:02:19.226Z,10.40
2018-01-15T07:04:47.608Z,15.10
2018-01-15T07:07:16.024Z,13.90
2018-01-15T07:09:44.643Z,16.83
2018-01-15T07:12:13.038Z,9.57
2018-01-15T07:14:42.249Z,11.37
2018-01-15T07:17:10.671Z,12.87
2018-01-15T07:19:39.459Z,9.47
2018-01-15T07:22:07.873Z,11.97
2018-01-15T07:24:37.173Z,15.30
2018-01-15T07:27:06.362Z,6.93
2018-01-15T07:29:34.760Z,15.97
2018-01-15T07:32:04.243Z,11.60
2018-01-15T07:34:32.664Z,16.53
2018-01-15T07:37:01.109Z,16.63
2018-01-15T07:39:29.611Z,13.53
2018-01-15T07:41:58.866Z,14.37
2018-01-15T07:44:28.013Z,14.07
2018-01-15T07:46:56.492Z,14.80
2018-01-15T07:49:24.924Z,16.87
2018-01-15T07:51:53.321Z,14.07
2018-01-15T07:54:21.845Z,14.30
2018-01-15T07:56:50.225Z,14.80
2018-01-15T07:59:18.626Z,11.90
2018-01-15T08:01:47.242Z,16.37
2018-01-15T08:04:15.623Z,13.57
2018-01-15T08:06:44.022Z,13.53
2018-01-15T08:09:13.422Z,17.33
2018-01-15T08:11:42.586Z,10.53
2018-01-15T08:14:10.991Z,9.67
2018-01-15T08:16:39.555Z,15.97
2018-01-15T08:19:07.968Z,17.40
2018-01-15T08:21:36.821Z,15.00
2018-01-15T08:24:05.265Z,14.13
2018-01-15T08:26:33.687Z,15.80
2018-01-15T08:29:02.164Z,13.97
2018-01-15T08:31:30.678Z,14.80
2018-01-15T08:33:59.835Z,14.43
2018-01-15T08:36:28.319Z,15.87
2018-01-15T08:38:57.970Z,17.80
2018-01-15T08:41:26.363Z,16.87
2018-01-15T08:43:54.765Z,18.33
2018-01-15T08:46:23.217Z,11.83
2018-01-15T08:48:51.595Z,12.20
2018-01-15T08:51:20.136Z,13.90
2018-01-15T08:53:48.572Z,19.13
2018-01-15T08:56:16.945Z,11.77
2018-01-15T08:58:45.356Z,16.90
2018-01-15T09:01:13.940Z,17.77
2018-01-15T09:03:42.391Z,17.87
2018-01-15T09:06:10.789Z,13.20
2018-01-15T09:08:39.303Z,16.63
2018-01-15T09:11:07.768Z,19.23
2018-01-15T09:13:36.177Z,16.07
2018-01-15T09:16:05.505Z,16.40
2018-01-15T09:18:33.898Z,12.07
2018-01-15T09:21:02.278Z,15.43
2018-01-15T09:23:31.199Z,18.00
2018-01-15T09:25:59.594Z,13.90
2018-01-15T09:28:28.943Z,19.47
2018-01-15T09:30:57.456Z,17.13
2018-01-15T09:33:26.601Z,14.70
2018-01-15T09:35:54.993Z,14.37
2018-01-15T09:38:23.771Z,15.20
2018-01-15T09:40:52.544Z,16.67
2018-01-15T09:43:21.705Z,11.90
2018-01-15T09:45:50.251Z,14.73
2018-01-15T09:48:18.666Z,18.17
2018-01-15T09:50:47.083Z,15.77
2018-01-15T09:53:16.615Z,18.23
2018-01-15T09:55:45.031Z,16.93
2018-01-15T09:58:13.409Z,14.70
2018-01-15T10:00:41.979Z,16.93
2018-01-15T10:03:10.419Z,14.97
2018-01-15T10:05:38.842Z,12.07
2018-01-15T10:08:07.334Z,15.07
2018-01-15T10:10:35.724Z,20.13
2018-01-15T10:13:04.123Z,16.60
2018-01-15T10:15:32.780Z,16.17
2018-01-15T10:18:01.824Z,15.17
2018-01-15T10:20:30.203Z,16.80
2018-01-15T10:22:59.591Z,18.00
2018-01-15T10:25:29.061Z,12.40
2018-01-15T10:27:57.458Z,16.17
2018-01-15T10:30:25.908Z,14.67
2018-01-15T10:32:54.297Z,15.90
2018-01-15T10:35:22.681Z,12.50
2018-01-15T10:37:51.088Z,13.30
2018-01-15T10:40:20.252Z,15.30
2018-01-15T10:42:48.749Z,14.07
2018-01-15T10:45:17.317Z,16.03
2018-01-15T10:47:45.722Z,15.27
2018-01-15T10:50:14.117Z,16.67
2018-01-15T10:52:42.547Z,15.27
2018-01-15T10:55:10.982Z,14.20
2018-01-15T10:57:39.385Z,13.47
2018-01-15T11:00:07.848Z,15.73
2018-01-15T11:02:37.006Z,17.73
2018-01-15T11:05:05.424Z,15.73
2018-01-15T11:07:34.276Z,16.10
2018-01-15T11:10:02.685Z,11.47
2018-01-15T11:12:31.832Z,11.83
2018-01-15T11:15:00.255Z,15.10
2018-01-15T11:17:29.420Z,12.80
2018-01-15T11:19:57.832Z,13.30
2018-01-15T11:22:27.112Z,14.27
2018-01-15T11:24:55.525Z,15.43
2018-01-15T11:27:24.254Z,16.00
2018-01-15T11:29:52.787Z,15.80
2018-01-15T11:32:21.202Z,18.77
2018-01-15T11:34:49.596Z,14.73
2018-01-15T11:37:18.181Z,9.20
2018-01-15T11:39:46.574Z,14.43
2018-01-15T11:42:14.979Z,14.33
2018-01-15T11:44:44.476Z,14.73
2018-01-15T11:47:13.615Z,11.57
2018-01-15T11:49:42.012Z,17.37
2018-01-15T11:52:10.614Z,11.73
2018-01-15T11:54:39.847Z,12.70
2018-01-15T11:57:08.266Z,17.57
2018-01-15T11:59:36.717Z,14.97
2018-01-15T12:02:05.086Z,14.27
2018-01-15T12:04:34.252Z,14.13
2018-01-15T12:07:02.775Z,15.83
2018-01-15T12:09:31.258Z,13.83
2018-01-15T12:11:59.676Z,11.93
2018-01-15T12:14:28.197Z,11.13
2018-01-15T12:16:57.358Z,15.00
2018-01-15T12:19:25.895Z,19.63
2018-01-15T12:21:54.452Z,12.37
2018-01-15T12:24:22.898Z,14.17
2018-01-15T12:26:51.389Z,9.97
2018-01-15T12:29:20.123Z,13.80
2018-01-15T12:31:48.564Z,13.83
2018-01-15T12:34:16.985Z,15.13
2018-01-15T12:36:45.446Z,14.80
2018-01-15T12:39:14.590Z,16.40
2018-01-15T12:41:42.979Z,14.10
2018-01-15T12:44:12.384Z,15.80
2018-01-15T12:46:41.181Z,18.83
2018-01-15T12:49:09.586Z,11.87
2018-01-15T12:51:38.874Z,15.93
2018-01-15T12:54:07.307Z,13.93
2018-01-15T12:56:35.687Z,17.00
2018-01-15T12:59:04.278Z,13.70
2018-01-15T13:01:32.779Z,15.80
2018-01-15T13:04:01.154Z,9.37
2018-01-15T13:06:41.535Z,14.93
2018-01-15T13:09:11.882Z,10.93
2018-01-15T13:11:40.299Z,15.40
2018-01-15T13:14:10.406Z,9.20
2018-01-15T13:16:38.815Z,12.20
2018-01-15T13:19:07.217Z,14.93
2018-01-15T13:21:35.690Z,19.53
2018-01-15T13:24:04.878Z,14.30
2018-01-15T13:26:33.308Z,14.47
2018-01-15T13:29:01.970Z,12.23
2018-01-15T13:31:31.283Z,12.00
2018-01-15T13:34:00.544Z,11.13
2018-01-15T13:36:29.115Z,11.73
2018-01-15T13:38:58.314Z,12.43
2018-01-15T13:41:28.835Z,13.30
2018-01-15T13:43:57.272Z,8.87
2018-01-15T13:46:26.469Z,10.93
2018-01-15T13:48:55.613Z,10.97
2018-01-15T13:51:24.194Z,11.17
2018-01-15T13:53:53.757Z,14.27
2018-01-15T13:56:24.333Z,12.60
2018-01-15T13:58:53.548Z,12.43
2018-01-15T14:01:21.978Z,14.83
2018-01-15T14:03:50.369Z,11.97
2018-01-15T14:06:19.129Z,10.30
2018-01-15T14:08:47.663Z,10.87
2018-01-15T14:11:16.116Z,11.40
2018-01-15T14:13:44.643Z,12.53
2018-01-15T14:16:13.123Z,9.90
2018-01-15T14:18:41.662Z,11.30
2018-01-15T14:21:10.269Z,13.30
2018-01-15T14:23:39.271Z,16.20
2018-01-15T14:26:08.785Z,9.50
2018-01-15T14:28:37.212Z,10.27
2018-01-15T14:31:05.593Z,7.87
2018-01-15T14:33:34.342Z,10.63
2018-01-15T14:36:03.732Z,11.40
2018-01-15T14:38:32.128Z,8.80
2018-01-15T14:41:00.553Z,13.33
2018-01-15T14:43:29.439Z,8.00
2018-01-15T14:45:57.840Z,11.00
2018-01-15T14:48:26.543Z,8.40
2018-01-15T14:50:55.408Z,7.50
2018-01-15T14:53:23.894Z,9.90
2018-01-15T14:55:52.293Z,7.87
2018-01-15T14:58:20.910Z,12.00
2018-01-15T15:00:50.088Z,12.20
2018-01-15T15:03:18.503Z,10.27
2018-01-15T15:05:47.779Z,7.03
2018-01-15T15:08:16.953Z,8.57
2018-01-15T15:10:45.341Z,4.77
2018-01-15T15:13:14.034Z,8.80
2018-01-15T15:15:42.456Z,12.00
2018-01-15T15:18:10.878Z,8.20
2018-01-15T15:20:39.667Z,7.80
2018-01-15T15:23:08.152Z,8.40
2018-01-15T15:25:36.575Z,7.70
2018-01-15T15:28:05.006Z,10.93
2018-01-15T15:30:33.388Z,7.90
2018-01-15T15:33:01.794Z,12.93
2018-01-15T15:35:31.379Z,12.87
2018-01-15T15:37:59.813Z,8.87
2018-01-15T15:40:28.288Z,7.57
2018-01-15T15:42:56.822Z,7.97
2018-01-15T15:45:25.188Z,11.00
2018-01-15T15:47:53.588Z,8.97
2018-01-15T15:50:22.137Z,6.73
2018-01-15T15:52:50.503Z,7.93
2018-01-15T15:55:19.116Z,11.27
2018-01-15T15:57:47.635Z,10.03
2018-01-15T16:00:16.844Z,10.23
2018-01-15T16:02:45.480Z,9.10
2018-01-15T16:05:13.934Z,8.63
2018-01-15T16:07:42.516Z,13.03
2018-01-15T16:10:11.703Z,12.00
2018-01-15T16:12:40.118Z,9.47
2018-01-15T16:15:08.892Z,11.00
2018-01-15T16:17:37.334Z,11.67
2018-01-15T16:20:06.735Z,8.33
2018-01-15T16:25:34.401Z,9.90
2018-01-15T16:28:02.855Z,11.87
2018-01-15T16:30:31.375Z,9.97
2018-01-15T16:33:00.669Z,11.07
2018-01-15T16:35:29.893Z,7.60
2018-01-15T16:37:58.991Z,9.80
2018-01-15T16:40:27.627Z,10.07
2018-01-15T16:42:56.094Z,8.13
2018-01-15T16:45:24.548Z,10.90
2018-01-15T16:47:53.167Z,9.90
2018-01-15T16:50:26.405Z,8.57
2018-01-15T16:52:54.915Z,6.70
2018-01-15T16:55:23.340Z,8.03
2018-01-15T16:57:51.745Z,7.67
2018-01-15T17:00:20.249Z,9.10
2018-01-15T17:02:48.690Z,11.43
2018-01-15T17:05:17.849Z,11.97
2018-01-15T17:07:46.294Z,8.50
2018-01-15T17:10:14.926Z,10.90
2018-01-15T17:12:43.308Z,10.07
2018-01-15T17:15:11.876Z,8.37
2018-01-15T17:17:40.267Z,12.70
2018-01-15T17:20:08.672Z,9.90
2018-01-15T17:22:37.915Z,10.27
2018-01-15T17:25:06.333Z,8.57
2018-01-15T17:27:34.731Z,13.90
2018-01-15T17:30:04.976Z,8.57
2018-01-15T17:32:33.362Z,8.60
2018-01-15T17:35:01.747Z,11.13
2018-01-15T17:37:30.182Z,8.90
2018-01-15T17:39:59.192Z,10.00
2018-01-15T17:42:28.398Z,10.90
2018-01-15T17:44:57.238Z,8.27
2018-01-15T17:47:25.613Z,9.93
2018-01-15T17:49:54.035Z,11.00
2018-01-15T17:52:22.699Z,9.80
2018-01-15T17:54:51.085Z,9.83
2018-01-15T17:57:20.222Z,8.37
2018-01-15T17:59:48.719Z,10.70
2018-01-15T18:02:17.185Z,13.77
2018-01-15T18:04:45.723Z,11.33
2018-01-15T18:07:14.313Z,11.00
2018-01-15T18:09:43.464Z,11.20
2018-01-15T18:12:12.618Z,13.03
2018-01-15T18:14:41.889Z,11.80
2018-01-15T18:17:10.288Z,12.17
2018-01-15T18:19:39.455Z,16.97
2018-01-15T18:22:08.073Z,15.00
2018-01-15T18:24:36.548Z,12.13
2018-01-15T18:27:05.694Z,10.80
2018-01-15T18:29:34.941Z,11.40
2018-01-15T18:32:04.154Z,11.57
2018-01-15T18:34:33.306Z,12.60
2018-01-15T18:37:01.891Z,10.90
2018-01-15T18:39:30.286Z,9.43
2018-01-15T18:41:59.797Z,9.43
2018-01-15T18:44:28.225Z,12.80
2018-01-15T18:46:56.611Z,13.00
2018-01-15T18:49:25.033Z,14.77
2018-01-15T18:51:53.481Z,10.93
2018-01-15T18:54:21.944Z,11.63
2018-01-15T18:56:50.362Z,9.97
2018-01-15T18:59:18.912Z,11.83
2018-01-15T19:01:48.062Z,14.27
2018-01-15T19:04:17.202Z,13.93
2018-01-15T19:06:45.724Z,12.90
2018-01-15T19:09:14.120Z,13.00
2018-01-15T19:11:43.281Z,13.63
2018-01-15T19:14:12.006Z,10.27
2018-01-15T19:16:40.399Z,9.57
2018-01-15T19:19:09.087Z,13.77
2018-01-15T19:21:37.738Z,14.40
2018-01-15T19:24:06.156Z,13.27
2018-01-15T19:26:34.581Z,13.97
2018-01-15T19:29:03.352Z,8.30
2018-01-15T19:31:31.793Z,10.73
2018-01-15T19:34:00.968Z,11.80
2018-01-15T19:39:33.596Z,13.47
2018-01-15T19:42:03.540Z,11.33
2018-01-15T19:44:37.443Z,10.13
2018-01-15T19:47:11.545Z,8.20
2018-01-15T19:49:45.403Z,7.97
2018-01-15T19:52:19.494Z,12.70
2018-01-15T19:54:53.465Z,11.43
2018-01-15T19:57:27.736Z,7.70
2018-01-15T20:00:01.844Z,7.37
2018-01-15T20:02:36.288Z,8.10
2018-01-15T20:05:10.377Z,11.17
2018-01-15T20:07:44.350Z,7.20
2018-01-15T20:10:18.398Z,9.10
2018-01-15T20:12:46.891Z,9.17
2018-01-15T20:15:15.299Z,9.40
2018-01-15T20:17:44.442Z,8.40
2018-01-15T20:20:12.957Z,7.00
2018-01-15T20:22:41.329Z,7.03
2018-01-15T20:25:11.616Z,6.00
2018-01-15T20:27:40.125Z,8.77
2018-01-15T20:30:08.519Z,7.90
2018-01-15T20:32:36.907Z,8.90
2018-01-15T20:35:06.244Z,7.93
2018-01-15T20:37:34.644Z,7.73
2018-01-15T20:40:03.031Z,8.50
2018-01-15T20:42:31.950Z,7.03
2018-01-15T20:45:00.395Z,7.00
2018-01-15T20:47:28.766Z,6.40
2018-01-15T20:49:57.249Z,5.03
2018-01-15T20:52:25.697Z,6.23
2018-01-15T20:54:54.063Z,4.83
2018-01-15T20:57:23.236Z,4.67
2018-01-15T20:59:51.616Z,5.90
2018-01-15T21:02:20.045Z,7.90
2018-01-15T21:04:48.493Z,6.87
2018-01-15T21:07:17.646Z,3.30
2018-01-15T21:09:46.025Z,8.20
2018-01-15T21:12:14.503Z,6.40
2018-01-15T21:14:42.935Z,4.53
2018-01-15T21:17:12.139Z,4.13
2018-01-15T21:19:40.662Z,5.60
2018-01-15T21:22:09.026Z,3.40
2018-01-15T21:24:37.400Z,4.10
2018-01-15T21:27:06.328Z,4.23
2018-01-15T21:29:34.723Z,5.47
2018-01-15T21:32:03.120Z,5.47
2018-01-15T21:34:32.443Z,4.30
2018-01-15T21:37:00.821Z,4.87
2018-01-15T21:39:29.239Z,4.20
2018-01-15T21:41:57.648Z,3.70
2018-01-15T21:44:26.538Z,4.70
2018-01-15T21:46:55.680Z,3.67
2018-01-15T21:49:24.070Z,3.70
2018-01-15T21:51:52.474Z,3.53
2018-01-15T21:54:21.322Z,4.30
2018-01-15T21:56:49.746Z,4.00
2018-01-15T21:59:18.167Z,2.10
2018-01-15T22:01:46.538Z,3.27
2018-01-15T22:04:16.226Z,5.70
2018-01-15T22:06:44.620Z,5.43
2018-01-15T22:09:13.785Z,2.27
2018-01-15T22:11:42.282Z,5.30
2018-01-15T22:14:11.432Z,4.07
2018-01-15T22:16:39.824Z,5.70
2018-01-15T22:19:08.231Z,3.57
2018-01-15T22:21:36.609Z,3.37
2018-01-15T22:24:05.759Z,2.40
2018-01-15T22:26:34.183Z,4.57
2018-01-15T22:29:02.578Z,2.70
2018-01-15T22:31:31.736Z,3.20
2018-01-15T22:34:00.342Z,2.90
2018-01-15T22:36:28.729Z,4.33
2018-01-15T22:38:57.117Z,3.20
2018-01-15T22:41:26.557Z,7.30
2018-01-15T22:43:54.969Z,4.73
2018-01-15T22:46:23.527Z,5.97
2018-01-15T22:48:52.028Z,3.40
2018-01-15T22:51:21.159Z,2.67
2018-01-15T22:53:50.407Z,2.53
2018-01-15T22:56:18.966Z,4.60
2018-01-15T22:58:47.338Z,4.30
2018-01-15T23:01:15.726Z,2.10
2018-01-15T23:03:44.389Z,3.20
2018-01-15T23:06:13.642Z,1.73
2018-01-15T23:08:42.133Z,2.40
2018-01-15T23:11:10.686Z,3.17
2018-01-15T23:13:39.075Z,2.40
2018-01-15T23:16:07.456Z,3.07
2018-01-15T23:18:36.023Z,3.30
2018-01-15T23:21:04.391Z,2.37
2018-01-15T23:23:32.755Z,2.57
2018-01-15T23:26:02.127Z,2.93
2018-01-15T23:28:30.501Z,2.10
2018-01-15T23:30:59.039Z,3.03
2018-01-15T23:33:27.539Z,1.53
2018-01-15T23:35:55.907Z,2.57
2018-01-15T23:38:24.282Z,3.27
2018-01-15T23:40:52.766Z,2.37
2018-01-15T23:43:21.167Z,3.20
2018-01-15T23:45:49.549Z,2.20
2018-01-15T23:48:18.387Z,2.87
2018-01-15T23:50:46.784Z,2.53
2018-01-15T23:53:15.168Z,2.00
2018-01-15T23:55:43.731Z,1.97
2018-01-15T23:58:12.109Z,2.53
